Time;durP1;ratioP1;P1;durP2;ratioP2;P2;SDS_P1;SDS_P2;PMS_P1;PMS_P2;Temp;Humidity;BMP_temperature;BMP_pressure;BME280_temperature;BME280_humidity;BME280_pressure;Samples;Min_cycle;Max_cycle;Signal;HPM_P1;HPM_P2
2023/06/13 00:01:50;;;;;;;10.27;6.87;;;;;;;;;;6280904;28;20189;-61
2023/06/13 00:04:51;;;;;;;6.03;5.43;;;;;;;;;;6281686;28;20235;-61
2023/06/13 00:07:53;;;;;;;9.27;6.70;;;;;;;;;;6290465;28;20188;-61
2023/06/13 00:10:54;;;;;;;8.80;6.27;;;;;;;;;;6303462;28;20180;-61
2023/06/13 00:13:55;;;;;;;7.77;6.30;;;;;;;;;;6273528;28;20200;-61
2023/06/13 00:16:57;;;;;;;6.90;6.20;;;;;;;;;;6280255;28;20381;-61
2023/06/13 00:19:59;;;;;;;7.20;6.40;;;;;;;;;;6302473;28;20192;-62
2023/06/13 00:23:03;;;;;;;7.43;6.13;;;;;;;;;;6305120;28;20193;-61
2023/06/13 00:26:04;;;;;;;7.87;5.77;;;;;;;;;;6297404;28;20273;-61
2023/06/13 00:29:05;;;;;;;7.60;6.50;;;;;;;;;;6285075;28;20200;-61
2023/06/13 00:32:07;;;;;;;10.37;6.33;;;;;;;;;;6283407;28;20201;-61
2023/06/13 00:35:08;;;;;;;6.40;5.80;;;;;;;;;;6291676;28;20204;-61
2023/06/13 00:38:09;;;;;;;11.10;6.67;;;;;;;;;;6280516;28;20196;-61
2023/06/13 00:41:10;;;;;;;8.87;7.17;;;;;;;;;;6278129;28;20236;-61
2023/06/13 00:44:11;;;;;;;7.57;6.33;;;;;;;;;;6281658;28;20328;-61
2023/06/13 00:47:13;;;;;;;9.93;6.83;;;;;;;;;;6269340;28;20197;-61
2023/06/13 00:50:15;;;;;;;8.37;6.37;;;;;;;;;;6282051;28;20217;-61
2023/06/13 00:53:17;;;;;;;10.23;6.40;;;;;;;;;;6279482;28;20231;-61
2023/06/13 00:56:18;;;;;;;7.40;5.77;;;;;;;;;;6297196;28;20194;-61
2023/06/13 00:59:20;;;;;;;6.87;6.17;;;;;;;;;;6272578;28;20215;-61
2023/06/13 01:02:23;;;;;;;8.83;6.83;;;;;;;;;;6292006;28;20225;-61
2023/06/13 01:05:31;;;;;;;9.50;6.47;;;;;;;;;;6272495;28;20218;-61
2023/06/13 01:08:35;;;;;;;10.00;6.20;;;;;;;;;;6281421;28;20186;-61
2023/06/13 01:11:39;;;;;;;9.00;6.53;;;;;;;;;;6284069;28;20184;-61
2023/06/13 01:14:46;;;;;;;8.10;6.67;;;;;;;;;;6302796;28;20200;-61
2023/06/13 01:17:57;;;;;;;7.13;6.10;;;;;;;;;;6295750;28;20339;-61
2023/06/13 01:21:00;;;;;;;11.03;6.70;;;;;;;;;;6287405;28;20229;-61
2023/06/13 01:24:14;;;;;;;7.37;6.73;;;;;;;;;;6301022;28;20216;-61
2023/06/13 01:27:17;;;;;;;7.43;6.10;;;;;;;;;;6286676;28;20272;-61
2023/06/13 01:30:20;;;;;;;7.27;6.40;;;;;;;;;;6299411;28;20189;-61
2023/06/13 01:33:22;;;;;;;8.10;7.23;;;;;;;;;;6292298;28;20204;-61
2023/06/13 01:36:23;;;;;;;7.33;6.50;;;;;;;;;;6296417;28;20200;-61
2023/06/13 01:39:24;;;;;;;7.67;6.87;;;;;;;;;;6295251;28;20299;-61
2023/06/13 01:42:25;;;;;;;7.33;6.40;;;;;;;;;;6282593;28;20188;-61
2023/06/13 01:45:27;;;;;;;8.00;7.17;;;;;;;;;;6273262;28;20251;-61
2023/06/13 01:48:28;;;;;;;6.93;6.07;;;;;;;;;;6279114;28;20194;-61
2023/06/13 01:51:41;;;;;;;6.33;5.73;;;;;;;;;;6307657;28;20195;-61
2023/06/13 01:54:45;;;;;;;7.70;6.47;;;;;;;;;;6301980;28;20198;-61
2023/06/13 01:57:52;;;;;;;10.83;6.50;;;;;;;;;;6307235;28;20276;-61
2023/06/13 02:00:57;;;;;;;6.93;6.27;;;;;;;;;;6286220;28;20182;-61
2023/06/13 02:03:59;;;;;;;14.37;7.10;;;;;;;;;;6294933;28;20217;-61
2023/06/13 02:07:00;;;;;;;5.43;5.03;;;;;;;;;;6271105;28;20262;-61
2023/06/13 02:10:04;;;;;;;6.87;6.07;;;;;;;;;;6279163;28;20224;-61
2023/06/13 02:13:06;;;;;;;5.93;5.10;;;;;;;;;;6276605;28;20189;-61
2023/06/13 02:16:07;;;;;;;6.30;5.40;;;;;;;;;;6291695;28;20221;-61
2023/06/13 02:19:08;;;;;;;6.77;5.97;;;;;;;;;;6279741;28;20189;-61
2023/06/13 02:22:09;;;;;;;8.73;6.13;;;;;;;;;;6295814;28;20182;-61
2023/06/13 02:25:11;;;;;;;8.03;5.30;;;;;;;;;;6290752;28;20384;-61
2023/06/13 02:28:13;;;;;;;6.37;4.87;;;;;;;;;;6278487;28;20219;-61
2023/06/13 02:31:15;;;;;;;5.90;5.27;;;;;;;;;;6287944;28;20208;-61
2023/06/13 02:34:16;;;;;;;7.00;5.50;;;;;;;;;;6275722;28;20456;-61
2023/06/13 02:37:18;;;;;;;6.23;5.63;;;;;;;;;;6288368;28;20189;-61
2023/06/13 02:40:19;;;;;;;5.37;4.97;;;;;;;;;;6299071;28;20254;-61
2023/06/13 02:43:21;;;;;;;7.87;5.17;;;;;;;;;;6282492;28;20241;-61
2023/06/13 02:46:22;;;;;;;6.63;4.97;;;;;;;;;;6281741;28;20212;-61
2023/06/13 02:49:23;;;;;;;6.30;4.77;;;;;;;;;;6282955;28;20189;-61
2023/06/13 02:52:24;;;;;;;8.07;5.50;;;;;;;;;;6285314;28;20203;-61
2023/06/13 02:55:28;;;;;;;6.67;5.40;;;;;;;;;;6290043;28;20200;-61
2023/06/13 02:58:29;;;;;;;7.23;4.83;;;;;;;;;;6271380;28;20215;-61
2023/06/13 03:01:30;;;;;;;5.63;5.13;;;;;;;;;;6294090;28;20460;-61
2023/06/13 03:04:32;;;;;;;7.50;5.47;;;;;;;;;;6292904;28;20247;-63
2023/06/13 03:07:33;;;;;;;9.03;5.53;;;;;;;;;;6282198;28;20189;-62
2023/06/13 03:10:35;;;;;;;9.47;5.63;;;;;;;;;;6286702;28;20193;-63
2023/06/13 03:13:36;;;;;;;6.13;5.17;;;;;;;;;;6282493;28;20193;-63
2023/06/13 03:16:38;;;;;;;7.27;5.43;;;;;;;;;;6279638;28;20205;-63
2023/06/13 03:19:39;;;;;;;7.87;4.90;;;;;;;;;;6267929;28;20205;-64
2023/06/13 03:22:40;;;;;;;6.23;5.63;;;;;;;;;;6284899;28;20197;-64
2023/06/13 03:25:41;;;;;;;6.70;5.77;;;;;;;;;;6290814;28;20220;-63
2023/06/13 03:28:42;;;;;;;5.50;5.00;;;;;;;;;;6294021;28;20185;-63
2023/06/13 03:31:43;;;;;;;6.07;5.20;;;;;;;;;;6279753;28;20189;-63
2023/06/13 03:34:44;;;;;;;7.23;5.37;;;;;;;;;;6281540;28;20193;-63
2023/06/13 03:37:45;;;;;;;8.30;4.70;;;;;;;;;;6283136;28;20200;-63
2023/06/13 03:40:47;;;;;;;7.63;5.40;;;;;;;;;;6271421;28;20200;-63
2023/06/13 03:43:48;;;;;;;9.27;5.60;;;;;;;;;;6290225;28;20228;-63
2023/06/13 03:46:49;;;;;;;6.93;5.67;;;;;;;;;;6271387;28;20188;-63
2023/06/13 03:49:50;;;;;;;8.53;6.07;;;;;;;;;;6288367;28;20226;-63
2023/06/13 03:52:51;;;;;;;6.73;5.40;;;;;;;;;;6274650;28;20189;-63
2023/06/13 03:55:52;;;;;;;5.87;5.37;;;;;;;;;;6285691;28;20234;-63
2023/06/13 03:58:53;;;;;;;6.00;5.37;;;;;;;;;;6269065;28;20276;-63
2023/06/13 04:01:54;;;;;;;6.43;5.23;;;;;;;;;;6277122;28;20204;-63
2023/06/13 04:04:56;;;;;;;7.17;5.07;;;;;;;;;;6279030;28;20220;-63
2023/06/13 04:07:58;;;;;;;6.93;5.40;;;;;;;;;;6279420;28;20223;-64
2023/06/13 04:10:59;;;;;;;6.37;5.70;;;;;;;;;;6292679;28;20189;-63
2023/06/13 04:14:01;;;;;;;7.77;6.00;;;;;;;;;;6270734;28;20222;-63
2023/06/13 04:17:02;;;;;;;8.00;5.43;;;;;;;;;;6289566;28;20208;-62
2023/06/13 04:20:05;;;;;;;8.00;5.63;;;;;;;;;;6287084;28;20193;-63
2023/06/13 04:23:06;;;;;;;6.97;5.83;;;;;;;;;;6269598;28;20339;-63
2023/06/13 04:26:07;;;;;;;9.10;5.57;;;;;;;;;;6277940;28;20193;-63
2023/06/13 04:29:09;;;;;;;5.93;4.87;;;;;;;;;;6279924;28;20231;-63
2023/06/13 04:32:13;;;;;;;6.40;5.13;;;;;;;;;;6293859;28;20197;-63
2023/06/13 04:35:17;;;;;;;6.17;5.13;;;;;;;;;;6276971;28;20280;-63
2023/06/13 04:38:20;;;;;;;9.37;5.77;;;;;;;;;;6280761;28;20201;-63
2023/06/13 04:41:23;;;;;;;7.40;5.33;;;;;;;;;;6292767;28;20363;-63
2023/06/13 04:44:28;;;;;;;7.20;6.13;;;;;;;;;;6283148;28;20248;-63
2023/06/13 04:47:30;;;;;;;6.37;5.43;;;;;;;;;;6279091;28;20193;-63
2023/06/13 04:50:32;;;;;;;6.40;5.43;;;;;;;;;;6277255;28;20208;-63
2023/06/13 04:53:34;;;;;;;6.47;5.70;;;;;;;;;;6280602;28;20257;-63
2023/06/13 04:56:35;;;;;;;5.87;5.33;;;;;;;;;;6277056;28;20232;-63
2023/06/13 04:59:36;;;;;;;6.10;5.60;;;;;;;;;;6293563;28;20189;-63
2023/06/13 05:02:41;;;;;;;7.80;5.03;;;;;;;;;;6279939;28;20193;-65
2023/06/13 05:05:43;;;;;;;8.00;5.47;;;;;;;;;;6286061;28;20205;-63
2023/06/13 05:08:44;;;;;;;9.03;5.33;;;;;;;;;;6274740;28;20212;-63
2023/06/13 05:11:46;;;;;;;6.33;5.43;;;;;;;;;;6278581;28;20212;-63
2023/06/13 05:14:47;;;;;;;5.50;5.00;;;;;;;;;;6294517;28;20197;-63
2023/06/13 05:17:48;;;;;;;7.67;5.40;;;;;;;;;;6288361;28;20229;-63
2023/06/13 05:20:49;;;;;;;7.37;6.13;;;;;;;;;;6292520;28;20185;-63
2023/06/13 05:23:50;;;;;;;5.40;4.70;;;;;;;;;;6297622;28;20219;-63
2023/06/13 05:26:51;;;;;;;5.77;4.90;;;;;;;;;;6273031;28;20216;-63
2023/06/13 05:29:52;;;;;;;7.03;5.63;;;;;;;;;;6277537;28;20200;-63
2023/06/13 05:32:53;;;;;;;5.47;4.97;;;;;;;;;;6277521;28;20190;-63
2023/06/13 05:35:55;;;;;;;6.87;5.73;;;;;;;;;;6287099;28;20253;-63
2023/06/13 05:38:57;;;;;;;6.13;5.13;;;;;;;;;;6280075;28;20273;-63
2023/06/13 05:41:58;;;;;;;7.83;5.40;;;;;;;;;;6271914;28;20254;-63
2023/06/13 05:44:59;;;;;;;6.27;5.67;;;;;;;;;;6277422;28;20347;-63
2023/06/13 05:48:00;;;;;;;6.47;5.23;;;;;;;;;;6281416;28;20192;-63
2023/06/13 05:51:03;;;;;;;7.97;5.27;;;;;;;;;;6274817;28;20218;-63
2023/06/13 05:54:04;;;;;;;8.03;5.87;;;;;;;;;;6269485;28;20224;-63
2023/06/13 05:57:05;;;;;;;5.37;4.87;;;;;;;;;;6285123;28;20263;-63
2023/06/13 06:00:09;;;;;;;5.67;4.90;;;;;;;;;;6282373;28;20197;-63
2023/06/13 06:03:10;;;;;;;7.33;6.63;;;;;;;;;;6278505;28;20205;-63
2023/06/13 06:06:11;;;;;;;5.70;5.13;;;;;;;;;;6263987;28;20190;-63
2023/06/13 06:09:12;;;;;;;5.30;4.80;;;;;;;;;;6292968;28;20197;-63
2023/06/13 06:12:13;;;;;;;5.57;5.07;;;;;;;;;;6298426;28;20195;-63
2023/06/13 06:15:14;;;;;;;9.07;5.00;;;;;;;;;;6290241;28;20190;-63
2023/06/13 06:18:15;;;;;;;7.50;4.77;;;;;;;;;;6283977;28;20228;-63
2023/06/13 06:21:16;;;;;;;7.00;4.77;;;;;;;;;;6281882;28;20210;-63
2023/06/13 06:24:17;;;;;;;7.07;5.23;;;;;;;;;;6283165;28;20302;-63
2023/06/13 06:27:18;;;;;;;6.07;5.03;;;;;;;;;;6283406;28;20192;-63
2023/06/13 06:30:19;;;;;;;4.90;4.07;;;;;;;;;;6276402;28;20192;-63
2023/06/13 06:33:20;;;;;;;6.13;4.63;;;;;;;;;;6274746;28;20204;-64
2023/06/13 06:36:24;;;;;;;5.50;4.77;;;;;;;;;;6289336;28;20190;-63
2023/06/13 06:39:25;;;;;;;8.10;4.30;;;;;;;;;;6282685;28;20193;-63
2023/06/13 06:42:26;;;;;;;5.00;3.80;;;;;;;;;;6292229;28;20192;-63
2023/06/13 06:45:28;;;;;;;4.57;4.17;;;;;;;;;;6279932;28;20263;-63
2023/06/13 06:48:29;;;;;;;4.67;3.33;;;;;;;;;;6275085;28;20276;-63
2023/06/13 06:51:30;;;;;;;4.60;3.97;;;;;;;;;;6290354;28;20190;-63
2023/06/13 06:54:31;;;;;;;5.43;4.30;;;;;;;;;;6267636;28;20326;-63
2023/06/13 06:57:32;;;;;;;4.77;3.87;;;;;;;;;;6287221;28;20194;-63
2023/06/13 07:00:33;;;;;;;4.03;3.63;;;;;;;;;;6272496;28;20198;-63
2023/06/13 07:03:35;;;;;;;4.87;4.40;;;;;;;;;;6275710;28;20217;-63
2023/06/13 07:06:37;;;;;;;4.17;3.77;;;;;;;;;;6287520;28;20191;-63
2023/06/13 07:09:38;;;;;;;4.03;3.40;;;;;;;;;;6266204;28;20205;-63
2023/06/13 07:12:39;;;;;;;5.20;3.40;;;;;;;;;;6313566;28;20275;-63
2023/06/13 07:15:40;;;;;;;4.13;3.50;;;;;;;;;;6280916;28;20213;-63
2023/06/13 07:18:41;;;;;;;3.87;3.57;;;;;;;;;;6290783;28;20193;-63
2023/06/13 07:21:42;;;;;;;5.03;4.50;;;;;;;;;;6294076;28;20190;-63
2023/06/13 07:24:43;;;;;;;5.87;4.53;;;;;;;;;;6286477;28;20213;-63
2023/06/13 07:27:44;;;;;;;8.83;5.97;;;;;;;;;;6263709;28;20190;-63
2023/06/13 07:30:46;;;;;;;12.57;6.13;;;;;;;;;;6281933;28;20200;-63
2023/06/13 07:33:47;;;;;;;9.60;5.43;;;;;;;;;;6280471;28;20192;-63
2023/06/13 07:36:48;;;;;;;6.20;4.13;;;;;;;;;;6289837;28;20193;-63
2023/06/13 07:39:49;;;;;;;4.07;3.67;;;;;;;;;;6276931;28;20198;-63
2023/06/13 07:42:51;;;;;;;5.40;3.80;;;;;;;;;;6297224;28;20189;-63
2023/06/13 07:45:52;;;;;;;6.53;4.53;;;;;;;;;;6290464;28;20237;-63
2023/06/13 07:48:53;;;;;;;5.87;4.67;;;;;;;;;;6258772;28;20201;-63
2023/06/13 07:51:54;;;;;;;5.70;4.33;;;;;;;;;;6291933;28;20189;-63
2023/06/13 07:54:55;;;;;;;6.00;3.93;;;;;;;;;;6290963;28;20185;-63
2023/06/13 07:57:56;;;;;;;4.23;3.13;;;;;;;;;;6278323;28;20189;-63
2023/06/13 08:00:57;;;;;;;4.03;3.33;;;;;;;;;;6296966;28;20185;-63
2023/06/13 08:03:58;;;;;;;4.17;3.77;;;;;;;;;;6271275;28;20286;-63
2023/06/13 08:06:59;;;;;;;5.17;3.80;;;;;;;;;;6288029;28;20252;-63
2023/06/13 08:10:00;;;;;;;5.00;3.77;;;;;;;;;;6274182;28;20208;-63
2023/06/13 08:13:01;;;;;;;4.47;3.87;;;;;;;;;;6273575;28;20201;-63
2023/06/13 08:16:03;;;;;;;7.40;4.77;;;;;;;;;;6273553;28;20217;-63
2023/06/13 08:19:04;;;;;;;7.10;4.13;;;;;;;;;;6278377;28;20295;-63
2023/06/13 08:22:05;;;;;;;4.00;3.60;;;;;;;;;;6275208;28;20200;-63
2023/06/13 08:25:10;;;;;;;4.00;3.70;;;;;;;;;;6270395;28;20209;-63
2023/06/13 08:28:13;;;;;;;4.37;3.97;;;;;;;;;;6272698;28;20197;-63
2023/06/13 08:31:17;;;;;;;5.20;4.70;;;;;;;;;;6285393;28;20187;-63
2023/06/13 08:34:18;;;;;;;4.97;3.40;;;;;;;;;;6284646;28;20406;-63
2023/06/13 08:37:19;;;;;;;4.43;4.07;;;;;;;;;;6280677;28;20200;-63
2023/06/13 08:40:20;;;;;;;3.93;3.53;;;;;;;;;;6279131;28;20209;-63
2023/06/13 08:43:21;;;;;;;3.33;3.03;;;;;;;;;;6291723;28;20182;-63
2023/06/13 08:46:24;;;;;;;4.97;4.13;;;;;;;;;;6278131;28;20194;-63
2023/06/13 08:49:25;;;;;;;4.47;4.00;;;;;;;;;;6276424;28;20191;-63
2023/06/13 08:52:28;;;;;;;4.50;4.10;;;;;;;;;;6285527;28;20185;-63
2023/06/13 08:55:32;;;;;;;5.27;3.67;;;;;;;;;;6281483;28;20204;-63
2023/06/13 08:58:35;;;;;;;5.30;3.80;;;;;;;;;;6270871;28;20190;-63
2023/06/13 09:01:39;;;;;;;4.33;3.93;;;;;;;;;;6282464;28;20197;-63
2023/06/13 09:04:41;;;;;;;6.20;3.57;;;;;;;;;;6278428;28;20239;-63
2023/06/13 09:07:42;;;;;;;4.67;3.70;;;;;;;;;;6275703;28;20185;-63
2023/06/13 09:10:44;;;;;;;6.30;3.83;;;;;;;;;;6277485;28;20194;-63
2023/06/13 09:13:45;;;;;;;4.73;3.70;;;;;;;;;;6286727;28;20190;-63
2023/06/13 09:16:50;;;;;;;4.20;3.80;;;;;;;;;;6282354;28;20284;-63
2023/06/13 09:19:51;;;;;;;5.40;3.93;;;;;;;;;;6273626;28;20201;-63
2023/06/13 09:22:52;;;;;;;6.30;4.13;;;;;;;;;;6276807;28;20188;-63
2023/06/13 09:25:54;;;;;;;4.03;3.63;;;;;;;;;;6276596;28;20209;-63
2023/06/13 09:28:55;;;;;;;5.50;3.60;;;;;;;;;;6277744;28;20193;-63
2023/06/13 09:31:59;;;;;;;3.83;3.53;;;;;;;;;;6265201;28;20182;-63
2023/06/13 09:35:02;;;;;;;5.30;3.70;;;;;;;;;;6278542;28;20223;-64
2023/06/13 09:38:04;;;;;;;5.03;3.63;;;;;;;;;;6286222;28;20199;-63
2023/06/13 09:41:05;;;;;;;3.70;3.40;;;;;;;;;;6292732;28;20259;-63
2023/06/13 09:44:06;;;;;;;3.90;3.43;;;;;;;;;;6263237;28;20238;-64
2023/06/13 09:47:07;;;;;;;5.07;3.83;;;;;;;;;;6273672;28;20193;-64
2023/06/13 09:50:09;;;;;;;4.33;3.80;;;;;;;;;;6277344;28;20224;-64
2023/06/13 09:53:10;;;;;;;3.83;3.53;;;;;;;;;;6285652;28;20209;-64
2023/06/13 09:56:11;;;;;;;7.03;3.90;;;;;;;;;;6292860;28;20192;-64
2023/06/13 09:59:18;;;;;;;4.30;3.93;;;;;;;;;;6272697;28;20228;-64
2023/06/13 10:02:20;;;;;;;3.93;3.47;;;;;;;;;;6286608;28;20198;-64
2023/06/13 10:05:21;;;;;;;6.37;4.37;;;;;;;;;;6271676;28;20222;-64
2023/06/13 10:08:22;;;;;;;5.27;3.50;;;;;;;;;;6283555;28;20223;-63
2023/06/13 10:11:24;;;;;;;3.67;3.33;;;;;;;;;;6274673;28;20281;-63
2023/06/13 10:14:27;;;;;;;6.13;4.00;;;;;;;;;;6285648;28;20189;-63
2023/06/13 10:17:29;;;;;;;4.50;3.67;;;;;;;;;;6288842;28;20204;-63
2023/06/13 10:20:31;;;;;;;4.77;4.20;;;;;;;;;;6280144;28;20187;-63
2023/06/13 10:23:34;;;;;;;6.13;3.43;;;;;;;;;;6270208;28;20217;-63
2023/06/13 10:26:37;;;;;;;6.13;3.77;;;;;;;;;;6276820;28;20199;-63
2023/06/13 10:29:38;;;;;;;5.07;3.70;;;;;;;;;;6286755;28;20241;-63
2023/06/13 10:32:39;;;;;;;3.63;3.33;;;;;;;;;;6277896;28;20184;-63
2023/06/13 10:36:00;;;;;;;4.53;3.97;;;;;;;;;;6288254;28;20223;-63
2023/06/13 10:39:10;;;;;;;6.23;3.80;;;;;;;;;;6286896;28;20199;-63
2023/06/13 10:42:16;;;;;;;5.27;3.90;;;;;;;;;;6281587;28;20257;-64
2023/06/13 10:45:21;;;;;;;4.93;3.80;;;;;;;;;;6281623;28;20234;-63
2023/06/13 10:48:35;;;;;;;4.40;4.00;;;;;;;;;;6271927;28;20218;-63
2023/06/13 10:51:37;;;;;;;5.57;4.30;;;;;;;;;;6278307;28;20202;-64
2023/06/13 10:54:39;;;;;;;4.17;3.70;;;;;;;;;;6275248;28;20232;-63
2023/06/13 10:57:51;;;;;;;6.00;3.77;;;;;;;;;;6290773;28;20195;-64
2023/06/13 11:00:52;;;;;;;4.17;3.83;;;;;;;;;;6302707;28;20186;-63
2023/06/13 11:03:53;;;;;;;3.70;3.30;;;;;;;;;;6276136;28;20214;-64
2023/06/13 11:07:14;;;;;;;4.13;3.73;;;;;;;;;;6278771;28;20197;-64
2023/06/13 11:10:18;;;;;;;4.33;3.57;;;;;;;;;;6282754;28;20187;-64
2023/06/13 11:13:24;;;;;;;4.43;3.77;;;;;;;;;;6276722;28;20276;-64
2023/06/13 11:16:38;;;;;;;4.27;3.73;;;;;;;;;;6276845;28;20248;-64
2023/06/13 11:19:40;;;;;;;4.13;3.73;;;;;;;;;;6282329;28;20194;-64
2023/06/13 11:22:44;;;;;;;4.17;3.77;;;;;;;;;;6277054;28;20216;-64
2023/06/13 11:25:46;;;;;;;4.60;4.07;;;;;;;;;;6291484;28;20215;-64
2023/06/13 11:28:51;;;;;;;4.20;3.80;;;;;;;;;;6283923;28;20189;-64
2023/06/13 11:31:53;;;;;;;4.47;3.77;;;;;;;;;;6291965;28;20194;-64
2023/06/13 11:34:55;;;;;;;4.00;3.70;;;;;;;;;;6282474;28;20193;-64
2023/06/13 11:37:59;;;;;;;4.13;3.63;;;;;;;;;;6284627;28;20185;-64
2023/06/13 11:41:00;;;;;;;4.70;4.00;;;;;;;;;;6285129;28;20229;-64
2023/06/13 11:44:01;;;;;;;5.20;4.33;;;;;;;;;;6286758;28;20241;-64
2023/06/13 11:47:02;;;;;;;4.57;4.23;;;;;;;;;;6278023;28;20222;-64
2023/06/13 11:50:03;;;;;;;5.73;3.73;;;;;;;;;;6273217;28;20201;-64
2023/06/13 11:53:08;;;;;;;4.47;4.07;;;;;;;;;;6269534;28;20205;-64
2023/06/13 11:56:10;;;;;;;6.03;3.67;;;;;;;;;;6281108;28;20205;-64
2023/06/13 11:59:16;;;;;;;5.63;4.30;;;;;;;;;;6289658;28;20228;-64
2023/06/13 12:02:18;;;;;;;4.53;3.80;;;;;;;;;;6283749;28;20190;-64
2023/06/13 12:05:19;;;;;;;4.73;4.33;;;;;;;;;;6290816;28;20222;-64
2023/06/13 12:08:21;;;;;;;4.10;3.77;;;;;;;;;;6270060;28;20201;-64
2023/06/13 12:11:22;;;;;;;5.60;3.83;;;;;;;;;;6274128;28;20198;-64
2023/06/13 12:14:23;;;;;;;4.77;3.60;;;;;;;;;;6273650;28;20257;-62
2023/06/13 12:17:26;;;;;;;3.57;3.27;;;;;;;;;;6281705;28;20300;-62
2023/06/13 12:20:27;;;;;;;3.80;3.50;;;;;;;;;;6281912;28;20193;-62
2023/06/13 12:23:29;;;;;;;3.60;3.30;;;;;;;;;;6284322;28;20197;-62
2023/06/13 12:26:33;;;;;;;3.83;3.50;;;;;;;;;;6278587;28;20280;-63
2023/06/13 12:29:34;;;;;;;6.63;3.70;;;;;;;;;;6283200;28;20201;-62
2023/06/13 12:32:38;;;;;;;4.27;3.50;;;;;;;;;;6292225;28;20186;-62
2023/06/13 12:35:48;;;;;;;6.17;3.77;;;;;;;;;;6286872;28;20263;-62
2023/06/13 12:38:51;;;;;;;4.73;3.47;;;;;;;;;;6281079;28;20189;-63
2023/06/13 12:41:52;;;;;;;3.27;2.97;;;;;;;;;;6288897;28;20243;-63
2023/06/13 12:44:56;;;;;;;3.50;3.13;;;;;;;;;;6287814;28;20236;-62
2023/06/13 12:47:58;;;;;;;3.20;3.00;;;;;;;;;;6290708;28;20182;-63
2023/06/13 12:50:59;;;;;;;3.83;3.47;;;;;;;;;;6278015;28;20275;-60
2023/06/13 12:54:20;;;;;;;4.77;3.80;;;;;;;;;;6292924;28;20201;-62
2023/06/13 12:57:22;;;;;;;4.47;3.40;;;;;;;;;;6279840;28;20185;-64
2023/06/13 13:00:24;;;;;;;5.07;3.53;;;;;;;;;;6283632;28;20204;-64
2023/06/13 13:03:25;;;;;;;4.17;3.17;;;;;;;;;;6278656;28;20192;-64
2023/06/13 13:06:29;;;;;;;3.73;3.33;;;;;;;;;;6285811;28;20247;-64
2023/06/13 13:09:31;;;;;;;5.70;3.40;;;;;;;;;;6272707;28;20190;-63
2023/06/13 13:12:32;;;;;;;3.80;3.50;;;;;;;;;;6279357;28;20282;-63
2023/06/13 13:15:33;;;;;;;4.13;3.30;;;;;;;;;;6273241;28;20288;-63
2023/06/13 13:18:34;;;;;;;4.07;3.40;;;;;;;;;;6279053;28;20204;-64
2023/06/13 13:21:35;;;;;;;3.50;3.20;;;;;;;;;;6279632;28;20201;-63
2023/06/13 13:24:37;;;;;;;3.40;3.10;;;;;;;;;;6275795;28;20201;-64
2023/06/13 13:27:38;;;;;;;3.20;2.90;;;;;;;;;;6275292;28;20217;-64
2023/06/13 13:30:39;;;;;;;3.17;2.80;;;;;;;;;;6272463;28;20229;-63
2023/06/13 13:33:41;;;;;;;3.53;3.23;;;;;;;;;;6272588;28;20213;-63
2023/06/13 13:36:42;;;;;;;3.50;3.20;;;;;;;;;;6274319;28;20197;-64
2023/06/13 13:39:43;;;;;;;3.47;3.17;;;;;;;;;;6268767;28;20236;-64
2023/06/13 13:42:45;;;;;;;4.00;3.47;;;;;;;;;;6286754;28;20227;-63
2023/06/13 13:45:46;;;;;;;5.53;3.37;;;;;;;;;;6283631;28;20240;-63
2023/06/13 13:48:47;;;;;;;5.23;3.63;;;;;;;;;;6289171;28;20188;-63
2023/06/13 13:51:48;;;;;;;3.83;3.40;;;;;;;;;;6276386;28;20208;-63
2023/06/13 13:54:50;;;;;;;6.70;3.40;;;;;;;;;;6281035;28;20211;-64
2023/06/13 13:57:51;;;;;;;3.43;2.93;;;;;;;;;;6271845;28;20193;-63
2023/06/13 14:00:52;;;;;;;4.57;3.30;;;;;;;;;;6274664;28;20220;-63
2023/06/13 14:03:53;;;;;;;4.20;3.73;;;;;;;;;;6280671;28;20279;-63
2023/06/13 14:06:54;;;;;;;3.97;3.23;;;;;;;;;;6292431;28;20253;-63
2023/06/13 14:09:55;;;;;;;3.83;3.50;;;;;;;;;;6308258;28;20192;-63
2023/06/13 14:12:56;;;;;;;4.97;3.50;;;;;;;;;;6271640;28;20221;-63
2023/06/13 14:15:57;;;;;;;4.57;3.63;;;;;;;;;;6282733;28;20231;-64
2023/06/13 14:18:59;;;;;;;3.43;3.13;;;;;;;;;;6277626;28;20188;-64
2023/06/13 14:22:00;;;;;;;8.23;3.50;;;;;;;;;;6291827;28;20185;-63
2023/06/13 14:25:01;;;;;;;3.77;3.47;;;;;;;;;;6272331;28;20226;-64
2023/06/13 14:28:02;;;;;;;4.40;3.67;;;;;;;;;;6285684;28;20200;-64
2023/06/13 14:31:04;;;;;;;5.03;3.87;;;;;;;;;;6274572;28;20205;-63
2023/06/13 14:34:05;;;;;;;5.20;3.37;;;;;;;;;;6287611;28;20225;-63
2023/06/13 14:37:06;;;;;;;3.70;3.40;;;;;;;;;;6288420;28;20200;-63
2023/06/13 14:40:07;;;;;;;3.53;2.90;;;;;;;;;;6268397;28;20185;-63
2023/06/13 14:43:09;;;;;;;3.83;3.53;;;;;;;;;;6283811;28;20197;-63
2023/06/13 14:46:10;;;;;;;5.50;3.60;;;;;;;;;;6284208;28;20248;-64
2023/06/13 14:49:11;;;;;;;7.37;3.33;;;;;;;;;;6281944;28;20208;-64
2023/06/13 14:52:12;;;;;;;3.77;3.47;;;;;;;;;;6274704;28;20196;-64
2023/06/13 14:55:13;;;;;;;4.60;3.57;;;;;;;;;;6275083;28;20218;-63
2023/06/13 14:58:14;;;;;;;5.00;3.47;;;;;;;;;;6267093;28;20289;-66
2023/06/13 15:01:15;;;;;;;5.43;3.57;;;;;;;;;;6291332;28;20200;-66
2023/06/13 15:04:16;;;;;;;6.93;3.83;;;;;;;;;;6275290;28;20255;-67
2023/06/13 15:07:17;;;;;;;3.80;3.50;;;;;;;;;;6308109;28;20264;-67
2023/06/13 15:10:19;;;;;;;3.70;3.40;;;;;;;;;;6272732;28;20202;-67
2023/06/13 15:13:21;;;;;;;3.90;3.40;;;;;;;;;;6299629;28;20215;-67
2023/06/13 15:16:22;;;;;;;4.10;3.80;;;;;;;;;;6280104;28;20213;-67
2023/06/13 15:19:23;;;;;;;5.00;3.67;;;;;;;;;;6284261;28;20292;-67
2023/06/13 15:22:24;;;;;;;3.70;3.40;;;;;;;;;;6279197;28;20275;-67
2023/06/13 15:25:25;;;;;;;3.87;3.57;;;;;;;;;;6269313;28;20194;-66
2023/06/13 15:28:26;;;;;;;3.83;3.40;;;;;;;;;;6296005;28;20190;-66
2023/06/13 15:31:28;;;;;;;5.67;3.53;;;;;;;;;;6285453;28;20192;-66
2023/06/13 15:34:30;;;;;;;3.60;3.30;;;;;;;;;;6312864;28;20223;-65
2023/06/13 15:37:31;;;;;;;3.87;3.47;;;;;;;;;;6284530;28;20186;-66
2023/06/13 15:40:32;;;;;;;5.00;3.53;;;;;;;;;;6268982;28;20240;-65
2023/06/13 15:43:33;;;;;;;3.80;3.13;;;;;;;;;;6272341;28;20189;-66
2023/06/13 15:46:34;;;;;;;3.73;3.23;;;;;;;;;;6282583;28;20239;-65
2023/06/13 15:49:35;;;;;;;4.37;3.63;;;;;;;;;;6280457;28;20197;-65
2023/06/13 15:52:37;;;;;;;4.00;3.50;;;;;;;;;;6276918;28;20193;-65
2023/06/13 15:55:41;;;;;;;3.67;3.37;;;;;;;;;;6286686;28;20217;-65
2023/06/13 15:58:42;;;;;;;4.50;3.50;;;;;;;;;;6276506;28;20257;-65
2023/06/13 16:01:44;;;;;;;8.63;3.60;;;;;;;;;;6279464;28;20199;-65
2023/06/13 16:04:45;;;;;;;7.10;3.67;;;;;;;;;;6282211;28;20190;-65
2023/06/13 16:07:46;;;;;;;5.77;3.50;;;;;;;;;;6280292;28;20190;-65
2023/06/13 16:10:47;;;;;;;5.27;3.70;;;;;;;;;;6289601;28;20212;-66
2023/06/13 16:13:48;;;;;;;3.37;3.07;;;;;;;;;;6276813;28;20247;-66
2023/06/13 16:16:49;;;;;;;3.67;3.20;;;;;;;;;;6278877;28;20188;-65
2023/06/13 16:19:50;;;;;;;3.50;3.13;;;;;;;;;;6271133;28;20271;-65
2023/06/13 16:22:52;;;;;;;3.47;3.17;;;;;;;;;;6272440;28;20197;-65
2023/06/13 16:25:54;;;;;;;3.80;3.10;;;;;;;;;;6268900;28;20192;-65
2023/06/13 16:28:55;;;;;;;3.77;3.40;;;;;;;;;;6276688;28;20200;-65
2023/06/13 16:31:56;;;;;;;3.63;3.33;;;;;;;;;;6276304;28;20204;-64
2023/06/13 16:34:57;;;;;;;4.13;3.37;;;;;;;;;;6285188;28;20254;-65
2023/06/13 16:37:58;;;;;;;4.73;3.10;;;;;;;;;;6288798;28;20188;-65
2023/06/13 16:40:59;;;;;;;4.30;3.50;;;;;;;;;;6282068;28;20227;-64
2023/06/13 16:44:00;;;;;;;3.67;3.30;;;;;;;;;;6284771;28;20228;-64
2023/06/13 16:47:02;;;;;;;6.80;3.50;;;;;;;;;;6278098;28;20209;-65
2023/06/13 16:50:04;;;;;;;4.03;3.70;;;;;;;;;;6278727;28;20265;-65
2023/06/13 16:53:05;;;;;;;5.93;4.07;;;;;;;;;;6296540;28;20189;-65
2023/06/13 16:56:06;;;;;;;6.20;3.30;;;;;;;;;;6280616;28;20232;-65
2023/06/13 16:59:07;;;;;;;5.13;3.30;;;;;;;;;;6279530;28;20199;-64
2023/06/13 17:02:08;;;;;;;5.40;3.50;;;;;;;;;;6280082;28;20195;-64
2023/06/13 17:05:10;;;;;;;3.60;3.30;;;;;;;;;;6273847;28;20216;-64
2023/06/13 17:08:11;;;;;;;3.53;2.93;;;;;;;;;;6288617;28;20197;-64
2023/06/13 17:11:12;;;;;;;3.83;3.43;;;;;;;;;;6278426;28;20180;-64
2023/06/13 17:14:13;;;;;;;5.73;3.27;;;;;;;;;;6272746;28;20213;-64
2023/06/13 17:17:14;;;;;;;4.30;3.47;;;;;;;;;;6284965;28;20196;-64
2023/06/13 17:20:15;;;;;;;3.60;3.30;;;;;;;;;;6279571;28;20196;-64
2023/06/13 17:23:16;;;;;;;5.77;3.53;;;;;;;;;;6280453;28;20185;-64
2023/06/13 17:26:17;;;;;;;7.67;3.87;;;;;;;;;;6291432;28;20314;-64
2023/06/13 17:29:19;;;;;;;6.07;3.03;;;;;;;;;;6273371;28;20204;-65
2023/06/13 17:32:21;;;;;;;4.43;3.50;;;;;;;;;;6274474;28;20228;-65
2023/06/13 17:35:22;;;;;;;5.03;3.30;;;;;;;;;;6272598;28;20268;-66
2023/06/13 17:38:23;;;;;;;4.40;3.27;;;;;;;;;;6283573;28;20198;-66
2023/06/13 17:41:24;;;;;;;4.33;3.67;;;;;;;;;;6279971;28;20257;-64
2023/06/13 17:44:25;;;;;;;4.87;3.50;;;;;;;;;;6273839;28;20252;-64
2023/06/13 17:47:26;;;;;;;3.80;3.40;;;;;;;;;;6276217;28;20185;-63
2023/06/13 17:50:27;;;;;;;4.20;3.20;;;;;;;;;;6275782;28;20203;-64
2023/06/13 17:53:32;;;;;;;6.67;3.53;;;;;;;;;;6281420;28;20192;-64
2023/06/13 17:56:33;;;;;;;4.33;3.03;;;;;;;;;;6292803;28;20201;-64
2023/06/13 17:59:34;;;;;;;7.67;3.53;;;;;;;;;;6275017;28;20204;-64
2023/06/13 18:02:35;;;;;;;4.20;3.47;;;;;;;;;;6281755;28;20211;-63
2023/06/13 18:05:36;;;;;;;5.13;3.50;;;;;;;;;;6272113;28;20201;-63
2023/06/13 18:08:37;;;;;;;3.73;3.33;;;;;;;;;;6276047;28;20235;-64
2023/06/13 18:11:38;;;;;;;8.10;4.13;;;;;;;;;;6290525;28;20193;-64